sensor_id;sensor_type;location;lat;lon;timestamp;pressure;altitude;pressure_sealevel;temperature
53412;BMP280;39307;52.870;13.660;2023-02-15T00:00:13;102734.78;;;2.12
53412;BMP280;39307;52.870;13.660;2023-02-15T00:02:39;102727.81;;;2.14
53412;BMP280;39307;52.870;13.660;2023-02-15T00:05:06;102730.47;;;2.12
53412;BMP280;39307;52.870;13.660;2023-02-15T00:07:33;102732.91;;;2.15
53412;BMP280;39307;52.870;13.660;2023-02-15T00:09:59;102720.97;;;2.13
53412;BMP280;39307;52.870;13.660;2023-02-15T00:12:25;102729.72;;;2.26
53412;BMP280;39307;52.870;13.660;2023-02-15T00:14:51;102731.88;;;2.33
53412;BMP280;39307;52.870;13.660;2023-02-15T00:17:18;102726.03;;;2.29
53412;BMP280;39307;52.870;13.660;2023-02-15T00:19:44;102718.56;;;2.40
53412;BMP280;39307;52.870;13.660;2023-02-15T00:22:09;102720.47;;;2.37
53412;BMP280;39307;52.870;13.660;2023-02-15T00:24:36;102719.06;;;2.31
53412;BMP280;39307;52.870;13.660;2023-02-15T00:27:02;102715.81;;;2.28
53412;BMP280;39307;52.870;13.660;2023-02-15T00:29:28;102725.47;;;2.25
53412;BMP280;39307;52.870;13.660;2023-02-15T00:31:54;102724.38;;;2.29
53412;BMP280;39307;52.870;13.660;2023-02-15T00:34:23;102721.81;;;2.29
53412;BMP280;39307;52.870;13.660;2023-02-15T00:36:49;102726.03;;;2.29
53412;BMP280;39307;52.870;13.660;2023-02-15T00:39:16;102720.97;;;2.28
53412;BMP280;39307;52.870;13.660;2023-02-15T00:41:44;102706.38;;;2.27
53412;BMP280;39307;52.870;13.660;2023-02-15T00:44:11;102716.63;;;2.29
53412;BMP280;39307;52.870;13.660;2023-02-15T00:46:37;102715.72;;;2.29
53412;BMP280;39307;52.870;13.660;2023-02-15T00:49:04;102713.94;;;2.30
53412;BMP280;39307;52.870;13.660;2023-02-15T00:51:31;102707.47;;;2.38
53412;BMP280;39307;52.870;13.660;2023-02-15T00:53:57;102707.88;;;2.46
53412;BMP280;39307;52.870;13.660;2023-02-15T00:56:23;102695.09;;;2.58
53412;BMP280;39307;52.870;13.660;2023-02-15T00:58:49;102700.78;;;2.50
53412;BMP280;39307;52.870;13.660;2023-02-15T01:01:19;102697.88;;;2.40
53412;BMP280;39307;52.870;13.660;2023-02-15T01:03:46;102689.53;;;2.35
53412;BMP280;39307;52.870;13.660;2023-02-15T01:06:13;102700.69;;;2.36
53412;BMP280;39307;52.870;13.660;2023-02-15T01:08:40;102699.81;;;2.37
53412;BMP280;39307;52.870;13.660;2023-02-15T01:11:09;102702.38;;;2.37
53412;BMP280;39307;52.870;13.660;2023-02-15T01:13:35;102697.94;;;2.39
53412;BMP280;39307;52.870;13.660;2023-02-15T01:16:02;102692.03;;;2.52
53412;BMP280;39307;52.870;13.660;2023-02-15T01:18:29;102684.00;;;2.57
53412;BMP280;39307;52.870;13.660;2023-02-15T01:20:55;102687.34;;;2.58
53412;BMP280;39307;52.870;13.660;2023-02-15T01:23:22;102681.25;;;2.59
53412;BMP280;39307;52.870;13.660;2023-02-15T01:25:48;102680.91;;;2.50
53412;BMP280;39307;52.870;13.660;2023-02-15T01:28:14;102684.03;;;2.41
53412;BMP280;39307;52.870;13.660;2023-02-15T01:30:41;102693.75;;;2.36
53412;BMP280;39307;52.870;13.660;2023-02-15T01:33:07;102691.00;;;2.39
53412;BMP280;39307;52.870;13.660;2023-02-15T01:35:33;102685.19;;;2.36
53412;BMP280;39307;52.870;13.660;2023-02-15T01:38:02;102686.00;;;2.36
53412;BMP280;39307;52.870;13.660;2023-02-15T01:40:29;102681.53;;;2.40
53412;BMP280;39307;52.870;13.660;2023-02-15T01:42:55;102680.66;;;2.39
53412;BMP280;39307;52.870;13.660;2023-02-15T01:45:25;102679.94;;;2.37
53412;BMP280;39307;52.870;13.660;2023-02-15T01:47:54;102677.53;;;2.34
53412;BMP280;39307;52.870;13.660;2023-02-15T01:50:37;102666.56;;;2.60
53412;BMP280;39307;52.870;13.660;2023-02-15T01:53:31;102662.44;;;2.71
53412;BMP280;39307;52.870;13.660;2023-02-15T01:56:02;102645.69;;;2.63
53412;BMP280;39307;52.870;13.660;2023-02-15T01:58:32;102638.28;;;2.57
53412;BMP280;39307;52.870;13.660;2023-02-15T02:01:00;102640.91;;;2.42
53412;BMP280;39307;52.870;13.660;2023-02-15T02:06:17;102630.69;;;2.25
53412;BMP280;39307;52.870;13.660;2023-02-15T02:08:45;102627.94;;;2.13
53412;BMP280;39307;52.870;13.660;2023-02-15T02:11:12;102622.84;;;2.11
53412;BMP280;39307;52.870;13.660;2023-02-15T02:13:43;102631.25;;;2.00
53412;BMP280;39307;52.870;13.660;2023-02-15T02:24:31;102621.53;;;1.89
53412;BMP280;39307;52.870;13.660;2023-02-15T02:27:24;102620.44;;;1.78
53412;BMP280;39307;52.870;13.660;2023-02-15T02:38:28;102612.59;;;1.49
53412;BMP280;39307;52.870;13.660;2023-02-15T02:41:12;102601.34;;;1.50
53412;BMP280;39307;52.870;13.660;2023-02-15T02:47:04;102612.34;;;1.53
53412;BMP280;39307;52.870;13.660;2023-02-15T02:49:38;102612.44;;;1.52
53412;BMP280;39307;52.870;13.660;2023-02-15T02:54:53;102614.44;;;1.30
53412;BMP280;39307;52.870;13.660;2023-02-15T02:57:22;102610.78;;;1.19
53412;BMP280;39307;52.870;13.660;2023-02-15T02:59:50;102614.50;;;1.14
53412;BMP280;39307;52.870;13.660;2023-02-15T03:02:24;102613.88;;;1.09
53412;BMP280;39307;52.870;13.660;2023-02-15T03:05:00;102607.22;;;1.05
53412;BMP280;39307;52.870;13.660;2023-02-15T03:07:29;102608.00;;;1.07
53412;BMP280;39307;52.870;13.660;2023-02-15T03:09:58;102606.47;;;1.03
53412;BMP280;39307;52.870;13.660;2023-02-15T03:12:31;102610.13;;;0.99
53412;BMP280;39307;52.870;13.660;2023-02-15T03:15:04;102612.16;;;0.92
53412;BMP280;39307;52.870;13.660;2023-02-15T03:17:39;102599.22;;;0.77
53412;BMP280;39307;52.870;13.660;2023-02-15T03:20:13;102602.78;;;0.75
53412;BMP280;39307;52.870;13.660;2023-02-15T03:22:48;102592.47;;;0.75
53412;BMP280;39307;52.870;13.660;2023-02-15T03:25:19;102591.25;;;0.82
53412;BMP280;39307;52.870;13.660;2023-02-15T03:27:49;102595.13;;;0.73
53412;BMP280;39307;52.870;13.660;2023-02-15T03:30:20;102579.56;;;0.75
53412;BMP280;39307;52.870;13.660;2023-02-15T03:32:47;102584.56;;;0.94
53412;BMP280;39307;52.870;13.660;2023-02-15T03:35:14;102576.22;;;0.89
53412;BMP280;39307;52.870;13.660;2023-02-15T03:38:00;102572.16;;;0.86
53412;BMP280;39307;52.870;13.660;2023-02-15T03:40:31;102572.16;;;0.69
53412;BMP280;39307;52.870;13.660;2023-02-15T03:45:52;102581.03;;;0.47
53412;BMP280;39307;52.870;13.660;2023-02-15T03:48:38;102582.16;;;0.41
53412;BMP280;39307;52.870;13.660;2023-02-15T03:51:14;102576.63;;;0.32
53412;BMP280;39307;52.870;13.660;2023-02-15T03:53:45;102572.81;;;0.39
53412;BMP280;39307;52.870;13.660;2023-02-15T03:56:12;102571.94;;;0.40
53412;BMP280;39307;52.870;13.660;2023-02-15T03:58:38;102560.78;;;0.39
53412;BMP280;39307;52.870;13.660;2023-02-15T04:01:13;102572.25;;;0.34
53412;BMP280;39307;52.870;13.660;2023-02-15T04:03:55;102558.91;;;0.43
53412;BMP280;39307;52.870;13.660;2023-02-15T04:06:23;102566.84;;;0.38
53412;BMP280;39307;52.870;13.660;2023-02-15T04:08:49;102563.50;;;0.36
53412;BMP280;39307;52.870;13.660;2023-02-15T04:11:15;102565.09;;;0.39
53412;BMP280;39307;52.870;13.660;2023-02-15T04:13:42;102563.59;;;0.35
53412;BMP280;39307;52.870;13.660;2023-02-15T04:16:09;102569.50;;;0.37
53412;BMP280;39307;52.870;13.660;2023-02-15T04:18:40;102564.66;;;0.31
53412;BMP280;39307;52.870;13.660;2023-02-15T04:21:06;102552.22;;;0.39
53412;BMP280;39307;52.870;13.660;2023-02-15T04:23:32;102547.06;;;0.22
53412;BMP280;39307;52.870;13.660;2023-02-15T04:25:58;102542.66;;;0.07
53412;BMP280;39307;52.870;13.660;2023-02-15T04:28:29;102539.47;;;0.02
53412;BMP280;39307;52.870;13.660;2023-02-15T04:30:55;102539.09;;;0.10
53412;BMP280;39307;52.870;13.660;2023-02-15T04:33:21;102537.13;;;-0.02
53412;BMP280;39307;52.870;13.660;2023-02-15T04:35:47;102530.38;;;-0.04
53412;BMP280;39307;52.870;13.660;2023-02-15T04:38:13;102524.81;;;-0.14
53412;BMP280;39307;52.870;13.660;2023-02-15T04:40:39;102525.59;;;-0.12
53412;BMP280;39307;52.870;13.660;2023-02-15T04:43:06;102525.81;;;-0.16
53412;BMP280;39307;52.870;13.660;2023-02-15T04:45:32;102514.38;;;-0.11
53412;BMP280;39307;52.870;13.660;2023-02-15T04:47:58;102512.94;;;-0.16
53412;BMP280;39307;52.870;13.660;2023-02-15T04:50:24;102519.38;;;-0.08
53412;BMP280;39307;52.870;13.660;2023-02-15T04:52:50;102514.38;;;-0.11
53412;BMP280;39307;52.870;13.660;2023-02-15T04:55:16;102512.63;;;-0.10
53412;BMP280;39307;52.870;13.660;2023-02-15T04:57:43;102511.72;;;-0.09
53412;BMP280;39307;52.870;13.660;2023-02-15T05:00:09;102503.09;;;0.08
53412;BMP280;39307;52.870;13.660;2023-02-15T05:02:35;102495.53;;;0.05
53412;BMP280;39307;52.870;13.660;2023-02-15T05:05:02;102500.25;;;-0.02
53412;BMP280;39307;52.870;13.660;2023-02-15T05:07:28;102495.38;;;-0.08
53412;BMP280;39307;52.870;13.660;2023-02-15T05:09:54;102496.41;;;-0.12
53412;BMP280;39307;52.870;13.660;2023-02-15T05:12:20;102504.59;;;-0.21
53412;BMP280;39307;52.870;13.660;2023-02-15T05:14:46;102501.59;;;-0.30
53412;BMP280;39307;52.870;13.660;2023-02-15T05:17:12;102505.78;;;-0.28
53412;BMP280;39307;52.870;13.660;2023-02-15T05:19:38;102496.56;;;-0.32
53412;BMP280;39307;52.870;13.660;2023-02-15T05:22:05;102494.03;;;-0.33
53412;BMP280;39307;52.870;13.660;2023-02-15T05:24:31;102492.16;;;-0.30
53412;BMP280;39307;52.870;13.660;2023-02-15T05:26:57;102488.97;;;-0.35
53412;BMP280;39307;52.870;13.660;2023-02-15T05:29:23;102488.16;;;-0.35
53412;BMP280;39307;52.870;13.660;2023-02-15T05:31:49;102479.78;;;-0.40
53412;BMP280;39307;52.870;13.660;2023-02-15T05:34:15;102491.31;;;-0.30
53412;BMP280;39307;52.870;13.660;2023-02-15T05:36:41;102478.63;;;-0.17
53412;BMP280;39307;52.870;13.660;2023-02-15T05:39:08;102482.31;;;-0.39
53412;BMP280;39307;52.870;13.660;2023-02-15T05:41:35;102480.63;;;-0.40
53412;BMP280;39307;52.870;13.660;2023-02-15T05:44:01;102481.97;;;-0.50
53412;BMP280;39307;52.870;13.660;2023-02-15T05:46:27;102479.94;;;-0.08
53412;BMP280;39307;52.870;13.660;2023-02-15T05:48:53;102479.56;;;-0.18
53412;BMP280;39307;52.870;13.660;2023-02-15T05:51:20;102478.53;;;-0.32
53412;BMP280;39307;52.870;13.660;2023-02-15T05:53:46;102473.63;;;-0.36
53412;BMP280;39307;52.870;13.660;2023-02-15T05:56:12;102487.22;;;-0.34
53412;BMP280;39307;52.870;13.660;2023-02-15T05:58:40;102479.19;;;-0.45
53412;BMP280;39307;52.870;13.660;2023-02-15T06:01:15;102479.09;;;-0.44
53412;BMP280;39307;52.870;13.660;2023-02-15T06:03:42;102484.25;;;-0.44
53412;BMP280;39307;52.870;13.660;2023-02-15T06:06:08;102477.59;;;-0.48
53412;BMP280;39307;52.870;13.660;2023-02-15T06:08:35;102482.38;;;-0.40
53412;BMP280;39307;52.870;13.660;2023-02-15T06:11:02;102480.34;;;-0.34
53412;BMP280;39307;52.870;13.660;2023-02-15T06:13:28;102475.91;;;-0.49
53412;BMP280;39307;52.870;13.660;2023-02-15T06:15:55;102473.03;;;-0.59
53412;BMP280;39307;52.870;13.660;2023-02-15T06:18:21;102472.94;;;-0.58
53412;BMP280;39307;52.870;13.660;2023-02-15T06:20:48;102466.06;;;-0.57
53412;BMP280;39307;52.870;13.660;2023-02-15T06:23:14;102460.22;;;-0.61
53412;BMP280;39307;52.870;13.660;2023-02-15T06:25:41;102451.47;;;-0.57
53412;BMP280;39307;52.870;13.660;2023-02-15T06:28:07;102453.81;;;-0.53
53412;BMP280;39307;52.870;13.660;2023-02-15T06:30:33;102452.66;;;-0.29
53412;BMP280;39307;52.870;13.660;2023-02-15T06:33:00;102443.28;;;-0.30
53412;BMP280;39307;52.870;13.660;2023-02-15T06:35:26;102454.53;;;-0.32
53412;BMP280;39307;52.870;13.660;2023-02-15T06:37:52;102448.28;;;-0.27
53412;BMP280;39307;52.870;13.660;2023-02-15T06:40:19;102457.56;;;-0.41
53412;BMP280;39307;52.870;13.660;2023-02-15T06:42:46;102446.09;;;-0.53
53412;BMP280;39307;52.870;13.660;2023-02-15T06:45:13;102438.38;;;-0.53
53412;BMP280;39307;52.870;13.660;2023-02-15T06:47:39;102440.75;;;-0.48
53412;BMP280;39307;52.870;13.660;2023-02-15T06:50:06;102442.41;;;-0.47
53412;BMP280;39307;52.870;13.660;2023-02-15T06:52:33;102447.97;;;-0.56
53412;BMP280;39307;52.870;13.660;2023-02-15T06:54:59;102447.00;;;-0.54
53412;BMP280;39307;52.870;13.660;2023-02-15T06:57:25;102446.84;;;-0.51
53412;BMP280;39307;52.870;13.660;2023-02-15T06:59:51;102453.66;;;-0.50
53412;BMP280;39307;52.870;13.660;2023-02-15T07:02:17;102459.88;;;-0.37
53412;BMP280;39307;52.870;13.660;2023-02-15T07:04:44;102455.13;;;-0.28
53412;BMP280;39307;52.870;13.660;2023-02-15T07:07:11;102458.72;;;-0.30
53412;BMP280;39307;52.870;13.660;2023-02-15T07:09:38;102452.31;;;-0.40
53412;BMP280;39307;52.870;13.660;2023-02-15T07:12:05;102455.50;;;-0.35
53412;BMP280;39307;52.870;13.660;2023-02-15T07:14:31;102460.13;;;-0.25
53412;BMP280;39307;52.870;13.660;2023-02-15T07:16:57;102460.50;;;-0.32
53412;BMP280;39307;52.870;13.660;2023-02-15T07:19:23;102447.16;;;-0.40
53412;BMP280;39307;52.870;13.660;2023-02-15T07:21:50;102447.09;;;-0.38
53412;BMP280;39307;52.870;13.660;2023-02-15T07:24:16;102451.72;;;-0.45
53412;BMP280;39307;52.870;13.660;2023-02-15T07:26:42;102447.09;;;-0.38
53412;BMP280;39307;52.870;13.660;2023-02-15T07:29:08;102451.28;;;-0.36
53412;BMP280;39307;52.870;13.660;2023-02-15T07:31:34;102441.75;;;-0.17
53412;BMP280;39307;52.870;13.660;2023-02-15T07:34:01;102436.13;;;-0.25
53412;BMP280;39307;52.870;13.660;2023-02-15T07:36:27;102428.41;;;-0.25
53412;BMP280;39307;52.870;13.660;2023-02-15T07:38:53;102418.34;;;-0.13
53412;BMP280;39307;52.870;13.660;2023-02-15T07:41:19;102416.53;;;-0.11
53412;BMP280;39307;52.870;13.660;2023-02-15T07:43:45;102413.06;;;-0.10
53412;BMP280;39307;52.870;13.660;2023-02-15T07:46:13;102413.50;;;-0.19
53412;BMP280;39307;52.870;13.660;2023-02-15T07:48:40;102409.81;;;-0.30
53412;BMP280;39307;52.870;13.660;2023-02-15T07:51:09;102407.53;;;-0.36
53412;BMP280;39307;52.870;13.660;2023-02-15T07:53:36;102400.03;;;-0.40
53412;BMP280;39307;52.870;13.660;2023-02-15T07:56:05;102403.94;;;-0.33
53412;BMP280;39307;52.870;13.660;2023-02-15T07:58:32;102405.94;;;-0.22
53412;BMP280;39307;52.870;13.660;2023-02-15T08:00:58;102402.38;;;-0.19
53412;BMP280;39307;52.870;13.660;2023-02-15T08:03:25;102394.50;;;-0.16
53412;BMP280;39307;52.870;13.660;2023-02-15T08:05:57;102393.44;;;-0.12
53412;BMP280;39307;52.870;13.660;2023-02-15T08:08:23;102387.59;;;-0.16
53412;BMP280;39307;52.870;13.660;2023-02-15T08:10:50;102384.75;;;-0.27
53412;BMP280;39307;52.870;13.660;2023-02-15T08:13:16;102381.94;;;-0.22
53412;BMP280;39307;52.870;13.660;2023-02-15T08:15:49;102387.56;;;-0.14
53412;BMP280;39307;52.870;13.660;2023-02-15T08:18:15;102386.94;;;-0.19
53412;BMP280;39307;52.870;13.660;2023-02-15T08:20:41;102385.94;;;-0.17
53412;BMP280;39307;52.870;13.660;2023-02-15T08:23:08;102379.06;;;-0.16
53412;BMP280;39307;52.870;13.660;2023-02-15T08:25:34;102380.41;;;-0.09
53412;BMP280;39307;52.870;13.660;2023-02-15T08:28:00;102375.81;;;-0.03
53412;BMP280;39307;52.870;13.660;2023-02-15T08:30:26;102380.09;;;-0.03
53412;BMP280;39307;52.870;13.660;2023-02-15T08:32:53;102379.13;;;-0.01
53412;BMP280;39307;52.870;13.660;2023-02-15T08:35:19;102365.78;;;0.08
53412;BMP280;39307;52.870;13.660;2023-02-15T08:37:45;102372.53;;;0.10
53412;BMP280;39307;52.870;13.660;2023-02-15T08:40:11;102367.22;;;0.13
53412;BMP280;39307;52.870;13.660;2023-02-15T08:42:37;102358.34;;;0.19
53412;BMP280;39307;52.870;13.660;2023-02-15T08:45:04;102359.75;;;0.24
53412;BMP280;39307;52.870;13.660;2023-02-15T08:47:30;102362.28;;;0.26
53412;BMP280;39307;52.870;13.660;2023-02-15T08:49:57;102355.88;;;0.32
53412;BMP280;39307;52.870;13.660;2023-02-15T08:52:23;102356.03;;;0.29
53412;BMP280;39307;52.870;13.660;2023-02-15T08:54:49;102353.22;;;0.34
53412;BMP280;39307;52.870;13.660;2023-02-15T08:57:15;102348.66;;;0.39
53412;BMP280;39307;52.870;13.660;2023-02-15T08:59:41;102347.59;;;0.43
53412;BMP280;39307;52.870;13.660;2023-02-15T09:02:10;102339.31;;;0.68
53412;BMP280;39307;52.870;13.660;2023-02-15T09:04:36;102333.72;;;0.60
53412;BMP280;39307;52.870;13.660;2023-02-15T09:07:02;102327.22;;;0.54
53412;BMP280;39307;52.870;13.660;2023-02-15T09:09:28;102341.28;;;0.63
53412;BMP280;39307;52.870;13.660;2023-02-15T09:11:54;102327.66;;;0.77
53412;BMP280;39307;52.870;13.660;2023-02-15T09:14:21;102335.06;;;0.67
53412;BMP280;39307;52.870;13.660;2023-02-15T09:16:48;102335.97;;;0.66
53412;BMP280;39307;52.870;13.660;2023-02-15T09:19:18;102337.66;;;0.67
53412;BMP280;39307;52.870;13.660;2023-02-15T09:21:45;102338.53;;;0.66
53412;BMP280;39307;52.870;13.660;2023-02-15T09:24:14;102332.56;;;0.66
53412;BMP280;39307;52.870;13.660;2023-02-15T09:26:43;102340.47;;;0.78
53412;BMP280;39307;52.870;13.660;2023-02-15T09:29:11;102338.03;;;0.90
53412;BMP280;39307;52.870;13.660;2023-02-15T09:31:39;102333.91;;;1.03
53412;BMP280;39307;52.870;13.660;2023-02-15T09:34:06;102350.38;;;1.01
53412;BMP280;39307;52.870;13.660;2023-02-15T09:36:34;102354.72;;;1.00
53412;BMP280;39307;52.870;13.660;2023-02-15T09:39:14;102357.19;;;1.02
53412;BMP280;39307;52.870;13.660;2023-02-15T09:49:52;102342.13;;;1.10
53412;BMP280;39307;52.870;13.660;2023-02-15T10:00:54;102332.34;;;1.30
53412;BMP280;39307;52.870;13.660;2023-02-15T10:11:36;102322.13;;;1.28
53412;BMP280;39307;52.870;13.660;2023-02-15T10:20:02;102305.63;;;1.31
53412;BMP280;39307;52.870;13.660;2023-02-15T10:27:54;102288.25;;;1.48
53412;BMP280;39307;52.870;13.660;2023-02-15T10:33:27;102285.72;;;1.62
53412;BMP280;39307;52.870;13.660;2023-02-15T10:41:42;102287.28;;;1.64
53412;BMP280;39307;52.870;13.660;2023-02-15T10:44:37;102286.19;;;1.68
53412;BMP280;39307;52.870;13.660;2023-02-15T10:52:40;102268.38;;;1.77
53412;BMP280;39307;52.870;13.660;2023-02-15T10:58:03;102260.47;;;1.94
53412;BMP280;39307;52.870;13.660;2023-02-15T11:01:01;102257.16;;;1.92
53412;BMP280;39307;52.870;13.660;2023-02-15T11:06:19;102260.19;;;1.99
53412;BMP280;39307;52.870;13.660;2023-02-15T11:09:02;102260.84;;;2.02
53412;BMP280;39307;52.870;13.660;2023-02-15T11:11:34;102253.72;;;2.05
53412;BMP280;39307;52.870;13.660;2023-02-15T11:16:56;102243.66;;;2.29
53412;BMP280;39307;52.870;13.660;2023-02-15T11:19:31;102246.69;;;2.21
53412;BMP280;39307;52.870;13.660;2023-02-15T11:22:01;102249.00;;;2.26
53412;BMP280;39307;52.870;13.660;2023-02-15T11:24:31;102252.22;;;2.29
53412;BMP280;39307;52.870;13.660;2023-02-15T11:27:25;102247.06;;;2.29
53412;BMP280;39307;52.870;13.660;2023-02-15T11:32:37;102249.06;;;2.38
53412;BMP280;39307;52.870;13.660;2023-02-15T11:38:10;102228.84;;;2.44
53412;BMP280;39307;52.870;13.660;2023-02-15T11:41:11;102232.06;;;2.48
53412;BMP280;39307;52.870;13.660;2023-02-15T11:43:47;102223.84;;;2.55
53412;BMP280;39307;52.870;13.660;2023-02-15T11:46:16;102227.53;;;2.51
53412;BMP280;39307;52.870;13.660;2023-02-15T11:48:43;102219.56;;;2.54
53412;BMP280;39307;52.870;13.660;2023-02-15T11:51:17;102221.06;;;2.58
53412;BMP280;39307;52.870;13.660;2023-02-15T11:53:47;102219.00;;;2.63
53412;BMP280;39307;52.870;13.660;2023-02-15T11:56:16;102208.25;;;2.69
53412;BMP280;39307;52.870;13.660;2023-02-15T12:01:43;102207.31;;;2.96
53412;BMP280;39307;52.870;13.660;2023-02-15T12:04:30;102207.53;;;3.05
53412;BMP280;39307;52.870;13.660;2023-02-15T12:12:28;102206.13;;;3.14
53412;BMP280;39307;52.870;13.660;2023-02-15T12:14:56;102202.81;;;3.24
53412;BMP280;39307;52.870;13.660;2023-02-15T12:17:35;102205.00;;;3.30
53412;BMP280;39307;52.870;13.660;2023-02-15T12:20:27;102205.13;;;3.41
53412;BMP280;39307;52.870;13.660;2023-02-15T12:23:04;102197.34;;;3.41
53412;BMP280;39307;52.870;13.660;2023-02-15T12:30:53;102185.44;;;3.50
53412;BMP280;39307;52.870;13.660;2023-02-15T12:33:36;102174.34;;;3.61
53412;BMP280;39307;52.870;13.660;2023-02-15T12:36:25;102170.41;;;3.68
53412;BMP280;39307;52.870;13.660;2023-02-15T12:39:05;102165.84;;;3.71
53412;BMP280;39307;52.870;13.660;2023-02-15T12:41:32;102167.06;;;3.78
53412;BMP280;39307;52.870;13.660;2023-02-15T12:44:18;102163.03;;;3.86
53412;BMP280;39307;52.870;13.660;2023-02-15T12:47:04;102153.59;;;3.98
53412;BMP280;39307;52.870;13.660;2023-02-15T12:49:36;102160.50;;;3.97
53412;BMP280;39307;52.870;13.660;2023-02-15T12:52:27;102150.81;;;3.88
53412;BMP280;39307;52.870;13.660;2023-02-15T12:54:52;102151.03;;;3.85
53412;BMP280;39307;52.870;13.660;2023-02-15T12:57:29;102138.66;;;4.01
53412;BMP280;39307;52.870;13.660;2023-02-15T13:00:23;102132.84;;;3.98
53412;BMP280;39307;52.870;13.660;2023-02-15T13:02:58;102136.06;;;4.01
53412;BMP280;39307;52.870;13.660;2023-02-15T13:08:03;102127.84;;;4.07
53412;BMP280;39307;52.870;13.660;2023-02-15T13:10:51;102122.31;;;4.11
53412;BMP280;39307;52.870;13.660;2023-02-15T13:13:22;102121.06;;;4.17
53412;BMP280;39307;52.870;13.660;2023-02-15T13:15:59;102111.22;;;4.22
53412;BMP280;39307;52.870;13.660;2023-02-15T13:18:45;102107.75;;;4.21
53412;BMP280;39307;52.870;13.660;2023-02-15T13:21:16;102102.19;;;4.38
53412;BMP280;39307;52.870;13.660;2023-02-15T13:23:50;102089.28;;;4.49
53412;BMP280;39307;52.870;13.660;2023-02-15T13:26:22;102095.31;;;4.60
53412;BMP280;39307;52.870;13.660;2023-02-15T13:28:55;102085.00;;;4.82
53412;BMP280;39307;52.870;13.660;2023-02-15T13:31:25;102081.63;;;4.92
53412;BMP280;39307;52.870;13.660;2023-02-15T13:34:12;102079.03;;;4.92
53412;BMP280;39307;52.870;13.660;2023-02-15T13:37:01;102073.38;;;5.09
53412;BMP280;39307;52.870;13.660;2023-02-15T13:39:47;102072.22;;;5.02
53412;BMP280;39307;52.870;13.660;2023-02-15T13:53:24;102064.16;;;4.94
53412;BMP280;39307;52.870;13.660;2023-02-15T13:56:02;102065.69;;;4.96
53412;BMP280;39307;52.870;13.660;2023-02-15T14:03:55;102067.28;;;5.10
53412;BMP280;39307;52.870;13.660;2023-02-15T14:20:51;102051.81;;;5.08
53412;BMP280;39307;52.870;13.660;2023-02-15T14:23:36;102049.22;;;5.08
53412;BMP280;39307;52.870;13.660;2023-02-15T14:31:57;102043.91;;;5.10
53412;BMP280;39307;52.870;13.660;2023-02-15T14:34:35;102043.91;;;5.10
53412;BMP280;39307;52.870;13.660;2023-02-15T14:37:03;102040.69;;;5.06
53412;BMP280;39307;52.870;13.660;2023-02-15T14:42:30;102040.69;;;5.06
53412;BMP280;39307;52.870;13.660;2023-02-15T14:45:12;102043.28;;;5.06
53412;BMP280;39307;52.870;13.660;2023-02-15T14:47:48;102040.59;;;5.08
53412;BMP280;39307;52.870;13.660;2023-02-15T14:56:06;102028.34;;;5.10
53412;BMP280;39307;52.870;13.660;2023-02-15T14:58:32;102024.66;;;5.12
53412;BMP280;39307;52.870;13.660;2023-02-15T15:01:07;102019.00;;;5.07
53412;BMP280;39307;52.870;13.660;2023-02-15T15:03:34;102019.25;;;5.04
53412;BMP280;39307;52.870;13.660;2023-02-15T15:06:03;102015.56;;;4.96
53412;BMP280;39307;52.870;13.660;2023-02-15T15:08:36;102015.56;;;4.96
53412;BMP280;39307;52.870;13.660;2023-02-15T15:13:57;102021.81;;;4.93
53412;BMP280;39307;52.870;13.660;2023-02-15T15:16:28;102024.53;;;4.92
53412;BMP280;39307;52.870;13.660;2023-02-15T15:18:56;102024.63;;;4.90
53412;BMP280;39307;52.870;13.660;2023-02-15T15:49:17;102023.44;;;4.73
53412;BMP280;39307;52.870;13.660;2023-02-15T15:51:46;102021.88;;;4.59
53412;BMP280;39307;52.870;13.660;2023-02-15T15:54:19;102021.06;;;4.59
53412;BMP280;39307;52.870;13.660;2023-02-15T15:57:02;102018.19;;;4.51
53412;BMP280;39307;52.870;13.660;2023-02-15T15:59:33;102015.00;;;4.48
53412;BMP280;39307;52.870;13.660;2023-02-15T16:02:09;102015.72;;;4.50
53412;BMP280;39307;52.870;13.660;2023-02-15T16:04:37;102018.03;;;4.31
53412;BMP280;39307;52.870;13.660;2023-02-15T16:09:56;102014.28;;;4.12
53412;BMP280;39307;52.870;13.660;2023-02-15T16:12:23;102006.25;;;4.04
53412;BMP280;39307;52.870;13.660;2023-02-15T16:14:50;102009.75;;;4.03
53412;BMP280;39307;52.870;13.660;2023-02-15T16:17:21;102002.69;;;3.94
53412;BMP280;39307;52.870;13.660;2023-02-15T16:19:49;102003.34;;;3.85
53412;BMP280;39307;52.870;13.660;2023-02-15T16:22:21;102006.59;;;3.76
53412;BMP280;39307;52.870;13.660;2023-02-15T16:27:39;102003.94;;;3.66
53412;BMP280;39307;52.870;13.660;2023-02-15T16:33:03;102006.03;;;3.48
53412;BMP280;39307;52.870;13.660;2023-02-15T16:35:30;101999.84;;;3.39
53412;BMP280;39307;52.870;13.660;2023-02-15T16:37:57;101998.66;;;3.32
53412;BMP280;39307;52.870;13.660;2023-02-15T16:42:50;102007.88;;;3.23
53412;BMP280;39307;52.870;13.660;2023-02-15T16:45:20;102003.84;;;3.19
53412;BMP280;39307;52.870;13.660;2023-02-15T16:48:00;102002.00;;;3.21
53412;BMP280;39307;52.870;13.660;2023-02-15T16:50:34;101998.34;;;3.12
53412;BMP280;39307;52.870;13.660;2023-02-15T16:53:01;101996.09;;;3.07
53412;BMP280;39307;52.870;13.660;2023-02-15T16:55:40;101994.88;;;3.00
53412;BMP280;39307;52.870;13.660;2023-02-15T16:58:11;102007.09;;;2.86
53412;BMP280;39307;52.870;13.660;2023-02-15T17:00:40;102010.28;;;2.77
53412;BMP280;39307;52.870;13.660;2023-02-15T17:05:50;102013.28;;;2.59
53412;BMP280;39307;52.870;13.660;2023-02-15T17:08:28;102018.13;;;2.51
53412;BMP280;39307;52.870;13.660;2023-02-15T17:11:05;102015.66;;;2.50
53412;BMP280;39307;52.870;13.660;2023-02-15T17:13:37;102008.84;;;2.49
53412;BMP280;39307;52.870;13.660;2023-02-15T17:18:45;102002.94;;;2.47
53412;BMP280;39307;52.870;13.660;2023-02-15T17:21:13;102001.16;;;2.35
53412;BMP280;39307;52.870;13.660;2023-02-15T17:23:46;102014.13;;;2.21
53412;BMP280;39307;52.870;13.660;2023-02-15T17:28:51;102019.38;;;2.07
53412;BMP280;39307;52.870;13.660;2023-02-15T17:31:19;102014.22;;;2.07
53412;BMP280;39307;52.870;13.660;2023-02-15T17:33:46;102022.59;;;2.11